Main page
METAR-TAF:

METAR-TAF

Airports :

Zenata – Messali El Hadj Airport

Tlemcen, Algeria

latitude: 35-01N, longitude: 001-28W, elevation: 247 m

Current weather observation

The report was made 49 minutes ago, at 04:00 UTC
Wind 2 kt from the East
Temperature 4°C
Humidity 75%
Pressure 1020 hPa
Visibility 10 km or more
no clouds below 1500 m and no cumulonimbus

METAR: DAON 160400Z 08002KT CAVOK 04/00 Q1020

Time: 05:49 (04:49 UTC)

Forecast

The report was made 5 hours and 49 minutes ago, at 23:00 UTC
Forecast valid from 16 at 00 UTC to 16 at 24 UTC
Wind 2 kt from variable directions
Visibility 10 km or more
Few clouds at a height of 2600 ft
Scattered clouds at a height of 23300 ft
Probability 30% :
Temporary
from 16 at 00 UTC to 16 at 09 UTC
Visibility: 3000 m
Scattered clouds at a height of 1000 ft
mist
Temporary
from 16 at 12 UTC to 16 at 18 UTC
Wind 10 kt from the North/Northwest

TAF: DAON 152300Z 1600/1624 VRB02KT 9999 FEW026 SCT233 PROB30 TEMPO 1600/1609 3000 BR SCT010 TEMPO 1612/1618 34010KT

Weather observations and forecasts of more than 4000 airports (METAR and TAF reports).

The available stations are represented by yellow and red dots on the map.

Hover mouse over dot to see the name of the station.

Then click to see weather observations and forecasts.

To change the map : click on the green buttons with a black cross to zoom in, on the green button with a dash to zoom out, or on the green arrows for adjacent maps.


METAR-TAF: